Weather at Huai'an Lianshui International Airport

Public forecast

Using degrees Celsius for public forecast. Weather courtesy of forecast.io.

Closest aviation weather report (METAR) to Huai'an Lianshui International Airport

Closest report is Hefei Xinqiao International Airport, 153.1 nm (283.6 km) SW.

2022/12/08 11:00 (retrieved 49 minutes ago)

ZSOF 081100Z 30001MPS 4000 BR OVC046 09/05 Q1024 NOSIG

Closest aviation forecast (TAF) to Huai'an Lianshui International Airport

Closest forecast is Muan International Airport, 366.7 nm (679.0 km) ENE.

2022/12/08 06:00 (retrieved 6 hours ago)

TAF RKJB 080500Z 0806/0912 33006KT CAVOK TN02/0821Z TX11/0905Z BECMG 0810/0811 11005KT BECMG 0812/0813 4000 BR FEW010 BKN100 BECMG 0821/0822 7000 NSW BECMG 0904/0905 33006KT NSC